Time;durP1;ratioP1;P1;durP2;ratioP2;P2;SDS_P1;SDS_P2;PMS_P1;PMS_P2;Temp;Humidity;BMP_temperature;BMP_pressure;BME280_temperature;BME280_humidity;BME280_pressure;Samples;Min_cycle;Max_cycle;Signal;HPM_P1;HPM_P2
2023/03/22 00:02:17;;;;;;;4.20;2.17;;;;;5.40;93927.00;;;;7399702;19;20179;-75
2023/03/22 00:04:46;;;;;;;2.80;2.07;;;;;5.50;93910.00;;;;7402832;19;20133;-76
2023/03/22 00:07:20;;;;;;;2.73;2.00;;;;;5.30;93919.00;;;;7402301;19;20116;-75
2023/03/22 00:09:49;;;;;;;5.10;1.90;;;;;5.20;93919.00;;;;7402291;19;20125;-76
2023/03/22 00:12:19;;;;;;;3.00;2.40;;;;;5.50;93923.00;;;;7398919;19;20172;-75
2023/03/22 00:14:54;;;;;;;6.60;2.30;;;;;5.50;93924.00;;;;7400370;19;20514;-75
2023/03/22 00:17:25;;;;;;;3.03;2.20;;;;;5.80;93923.00;;;;7400734;19;20607;-77
2023/03/22 00:19:59;;;;;;;7.53;2.73;;;;;5.80;93910.00;;;;7397140;19;20158;-82
2023/03/22 00:22:26;;;;;;;6.37;2.73;;;;;6.00;93909.00;;;;7401425;19;20124;-75
2023/03/22 00:25:02;;;;;;;4.07;2.60;;;;;6.40;93913.00;;;;7401661;19;20125;-75
2023/03/22 00:27:30;;;;;;;4.23;2.57;;;;;6.40;93901.00;;;;7396483;19;20476;-74
2023/03/22 00:30:06;;;;;;;3.40;2.70;;;;;6.30;93896.00;;;;7401481;19;20123;-74
2023/03/22 00:32:43;;;;;;;3.70;2.13;;;;;6.20;93896.00;;;;7399510;19;20146;-75
2023/03/22 00:35:11;;;;;;;4.87;2.20;;;;;6.00;93899.00;;;;7392871;19;20117;-75
2023/03/22 00:37:49;;;;;;;3.03;2.17;;;;;5.70;93891.00;;;;7400994;19;20129;-75
2023/03/22 00:40:17;;;;;;;4.00;2.67;;;;;5.80;93889.00;;;;7401651;19;20129;-75
2023/03/22 00:42:51;;;;;;;2.87;1.90;;;;;5.60;93895.00;;;;7400186;19;20136;-74
2023/03/22 00:45:18;;;;;;;5.47;2.80;;;;;5.50;93890.00;;;;7401301;19;20129;-74
2023/03/22 00:47:52;;;;;;;3.17;1.93;;;;;5.30;93884.00;;;;7401331;19;20117;-74
2023/03/22 00:50:26;;;;;;;3.83;1.97;;;;;4.90;93886.00;;;;7400174;19;20128;-73
2023/03/22 00:52:54;;;;;;;4.03;2.07;;;;;4.70;93878.00;;;;7400820;19;20587;-74
2023/03/22 00:55:28;;;;;;;3.20;2.07;;;;;4.80;93874.00;;;;7399853;19;20147;-76
2023/03/22 00:57:57;;;;;;;3.13;2.30;;;;;4.60;93865.00;;;;7401090;19;20507;-75
2023/03/22 01:00:26;;;;;;;5.23;2.30;;;;;4.50;93867.00;;;;7397830;19;20164;-75
2023/03/22 01:03:02;;;;;;;3.13;2.30;;;;;4.60;93856.00;;;;7398961;19;20198;-73
2023/03/22 01:05:36;;;;;;;2.60;2.07;;;;;4.60;93855.00;;;;7401064;19;20590;-75
2023/03/22 01:08:13;;;;;;;6.17;2.60;;;;;4.60;93851.00;;;;7400846;19;20617;-76
2023/03/22 01:10:43;;;;;;;3.67;2.30;;;;;4.60;93851.00;;;;7400426;19;20122;-74
2023/03/22 01:13:17;;;;;;;4.17;2.00;;;;;4.40;93858.00;;;;7398793;19;20136;-75
2023/03/22 01:15:51;;;;;;;5.30;2.40;;;;;4.30;93855.00;;;;7399145;19;20203;-75
2023/03/22 01:18:20;;;;;;;4.40;2.40;;;;;4.20;93850.00;;;;7400425;19;20137;-74
2023/03/22 01:20:54;;;;;;;4.50;2.60;;;;;4.20;93848.00;;;;7397906;19;20604;-75
2023/03/22 01:23:35;;;;;;;4.13;2.40;;;;;4.30;93839.00;;;;7398389;19;20140;-74
2023/03/22 01:26:09;;;;;;;4.27;2.10;;;;;4.40;93837.00;;;;7400413;19;20144;-75
2023/03/22 01:28:44;;;;;;;3.47;2.60;;;;;4.50;93843.00;;;;7398823;19;20120;-75
2023/03/22 01:31:18;;;;;;;4.50;2.33;;;;;4.40;93840.00;;;;7395144;19;20596;-75
2023/03/22 01:33:52;;;;;;;4.23;2.40;;;;;4.30;93837.00;;;;7398552;19;20138;-75
2023/03/22 01:36:28;;;;;;;7.10;2.90;;;;;4.20;93835.00;;;;7397752;19;20140;-75
2023/03/22 01:39:03;;;;;;;5.20;2.33;;;;;4.20;93836.00;;;;7398402;19;20177;-73
2023/03/22 01:41:37;;;;;;;3.73;2.60;;;;;4.10;93843.00;;;;7397163;19;20501;-75
2023/03/22 01:44:18;;;;;;;5.10;2.50;;;;;4.10;93840.00;;;;7397994;19;20243;-76
2023/03/22 01:46:53;;;;;;;6.17;2.90;;;;;4.40;93833.00;;;;7399759;19;20189;-75
2023/03/22 01:49:29;;;;;;;4.03;3.17;;;;;5.00;93827.00;;;;7399584;19;20227;-72
2023/03/22 01:52:10;;;;;;;4.67;3.47;;;;;5.40;93827.00;;;;7399062;19;20120;-73
2023/03/22 01:54:49;;;;;;;7.47;3.10;;;;;5.50;93834.00;;;;7398763;19;20188;-75
2023/03/22 01:57:24;;;;;;;4.43;3.40;;;;;5.60;93825.00;;;;7398523;19;20192;-75
2023/03/22 01:59:59;;;;;;;6.67;3.00;;;;;5.50;93820.00;;;;7398894;19;20145;-76
2023/03/22 02:02:33;;;;;;;7.47;3.70;;;;;5.60;93828.00;;;;7395012;19;20136;-75
2023/03/22 02:05:08;;;;;;;4.60;3.10;;;;;5.70;93825.00;;;;7398974;19;20600;-74
2023/03/22 02:07:38;;;;;;;3.70;2.80;;;;;5.80;93812.00;;;;7396819;19;20165;-75
2023/03/22 02:10:19;;;;;;;4.63;3.20;;;;;5.70;93813.00;;;;7398685;19;20136;-75
2023/03/22 02:13:18;;;;;;;4.63;3.50;;;;;5.80;93820.00;;;;7395072;19;20537;-75
2023/03/22 02:16:06;;;;;;;7.57;3.13;;;;;5.90;93805.00;;;;7397004;19;20145;-75
2023/03/22 02:18:43;;;;;;;5.77;2.33;;;;;6.00;93812.00;;;;7396524;19;20212;-73
2023/03/22 02:21:49;;;;;;;4.10;2.77;;;;;6.00;93807.00;;;;7395478;19;20126;-76
2023/03/22 02:24:48;;;;;;;3.80;3.00;;;;;5.90;93806.00;;;;7397144;19;20156;-75
2023/03/22 02:27:46;;;;;;;4.03;2.77;;;;;5.80;93802.00;;;;7397877;19;20145;-73
2023/03/22 02:30:38;;;;;;;5.53;2.73;;;;;5.80;93808.00;;;;7393895;19;20592;-74
2023/03/22 02:33:38;;;;;;;5.33;2.63;;;;;5.60;93797.00;;;;7397891;19;20129;-75
2023/03/22 02:36:18;;;;;;;3.53;2.50;;;;;5.70;93795.00;;;;7396473;19;20491;-73
2023/03/22 02:39:10;;;;;;;4.00;2.80;;;;;5.70;93792.00;;;;7396779;19;20624;-74
2023/03/22 02:41:53;;;;;;;5.07;2.90;;;;;5.70;93793.00;;;;7396592;19;20480;-75
2023/03/22 02:45:05;;;;;;;3.33;2.63;;;;;5.90;93793.00;;;;7397604;19;20129;-75
2023/03/22 02:48:05;;;;;;;4.87;2.23;;;;;5.80;93787.00;;;;7397544;19;20160;-74
2023/03/22 02:50:53;;;;;;;4.73;2.50;;;;;5.70;93798.00;;;;7396166;19;20624;-75
2023/03/22 02:53:26;;;;;;;5.37;2.30;;;;;5.70;93800.00;;;;7398165;19;20140;-75
2023/03/22 02:56:15;;;;;;;6.43;2.87;;;;;5.70;93796.00;;;;7396956;19;20113;-76
2023/03/22 02:58:52;;;;;;;5.03;2.43;;;;;5.80;93793.00;;;;7396093;19;20120;-75
2023/03/22 03:01:31;;;;;;;3.60;2.83;;;;;5.90;93796.00;;;;7394549;19;20129;-75
2023/03/22 03:04:03;;;;;;;2.60;2.40;;;;;6.00;93801.00;;;;7396977;19;20121;-79
2023/03/22 03:06:44;;;;;;;3.90;2.73;;;;;5.90;93800.00;;;;7396641;19;20135;-78
2023/03/22 03:09:16;;;;;;;3.70;2.57;;;;;6.00;93797.00;;;;7395294;19;20204;-79
2023/03/22 03:11:59;;;;;;;6.13;2.43;;;;;6.00;93804.00;;;;7395332;19;20643;-76
2023/03/22 03:14:31;;;;;;;3.13;2.70;;;;;6.00;93802.00;;;;7403014;19;20148;-76
2023/03/22 03:17:31;;;;;;;4.40;2.50;;;;;6.10;93804.00;;;;7403972;19;20608;-75
2023/03/22 03:20:29;;;;;;;5.20;3.03;;;;;6.00;93800.00;;;;7402068;19;20201;-73
2023/03/22 03:23:41;;;;;;;5.30;2.80;;;;;6.00;93805.00;;;;7398793;19;20148;-74
2023/03/22 03:26:45;;;;;;;3.73;2.43;;;;;5.90;93796.00;;;;7404136;19;20132;-72
2023/03/22 03:29:43;;;;;;;2.90;2.60;;;;;6.00;93798.00;;;;7398298;19;20127;-74
2023/03/22 03:32:58;;;;;;;5.57;2.60;;;;;6.10;93793.00;;;;7401877;19;20145;-75
2023/03/22 03:35:42;;;;;;;4.97;2.77;;;;;6.10;93795.00;;;;7399598;19;20619;-75
2023/03/22 03:38:16;;;;;;;5.97;2.80;;;;;6.10;93796.00;;;;7403389;19;20475;-76
2023/03/22 03:41:03;;;;;;;4.90;2.70;;;;;6.10;93790.00;;;;7402895;19;20498;-75
2023/03/22 03:43:32;;;;;;;4.53;2.43;;;;;6.00;93797.00;;;;7402067;19;20136;-75
2023/03/22 03:46:08;;;;;;;3.37;2.50;;;;;5.90;93796.00;;;;7402305;19;20129;-75
2023/03/22 03:48:40;;;;;;;4.07;2.90;;;;;6.00;93799.00;;;;7402919;19;20148;-75
2023/03/22 03:51:15;;;;;;;5.07;2.67;;;;;6.10;93794.00;;;;7401199;19;20622;-75
2023/03/22 03:53:49;;;;;;;6.87;2.60;;;;;6.00;93788.00;;;;7401614;19;20133;-75
2023/03/22 03:56:16;;;;;;;3.43;2.43;;;;;6.00;93788.00;;;;7401355;19;20143;-75
2023/03/22 03:58:50;;;;;;;6.00;3.17;;;;;6.10;93785.00;;;;7401742;19;20139;-75
2023/03/22 04:01:19;;;;;;;4.40;3.17;;;;;6.10;93782.00;;;;7401884;19;20591;-77
2023/03/22 04:03:55;;;;;;;7.17;3.20;;;;;6.10;93784.00;;;;7399930;19;20141;-83
2023/03/22 04:06:23;;;;;;;5.00;3.00;;;;;6.00;93778.00;;;;7402352;19;20467;-75
2023/03/22 04:08:57;;;;;;;4.40;3.00;;;;;5.90;93782.00;;;;7402468;19;20129;-76
2023/03/22 04:11:24;;;;;;;5.53;3.03;;;;;5.80;93783.00;;;;7402036;19;20133;-75
2023/03/22 04:14:07;;;;;;;5.60;3.27;;;;;6.00;93781.00;;;;7402349;19;20133;-75
2023/03/22 04:16:42;;;;;;;6.03;3.27;;;;;6.00;93778.00;;;;7401837;19;20595;-72
2023/03/22 04:19:10;;;;;;;5.37;3.17;;;;;6.20;93774.00;;;;7400996;19;20499;-75
2023/03/22 04:21:46;;;;;;;4.53;3.27;;;;;6.20;93770.00;;;;7398158;19;20112;-76
2023/03/22 04:24:21;;;;;;;4.70;3.00;;;;;6.20;93775.00;;;;7401499;19;20128;-74
2023/03/22 04:26:48;;;;;;;3.87;2.90;;;;;6.30;93700.00;;;;7399667;19;20141;-72
2023/03/22 04:29:24;;;;;;;6.70;3.30;;;;;6.20;93779.00;;;;7401782;19;20124;-74
2023/03/22 04:31:59;;;;;;;6.23;3.00;;;;;6.30;93778.00;;;;7401599;19;20140;-75
2023/03/22 04:34:33;;;;;;;3.30;2.97;;;;;6.30;93777.00;;;;7400768;19;20132;-75
2023/03/22 04:37:01;;;;;;;3.97;2.80;;;;;6.30;93771.00;;;;7401671;19;20185;-73
2023/03/22 04:39:35;;;;;;;4.23;2.93;;;;;6.20;93770.00;;;;7399359;19;20613;-73
2023/03/22 04:42:10;;;;;;;4.50;2.77;;;;;6.30;93763.00;;;;7400545;19;20562;-73
2023/03/22 04:44:37;;;;;;;5.13;3.00;;;;;6.20;93761.00;;;;7401479;19;20503;-75
2023/03/22 04:47:12;;;;;;;3.77;2.50;;;;;6.30;93763.00;;;;7401848;19;20121;-73
2023/03/22 04:49:41;;;;;;;2.43;2.20;;;;;5.90;93763.00;;;;7399681;19;20663;-76
2023/03/22 04:52:16;;;;;;;3.63;2.40;;;;;6.30;93754.00;;;;7400781;19;20124;-75
2023/03/22 04:54:43;;;;;;;4.87;2.37;;;;;6.20;93750.00;;;;7401333;19;20189;-73
2023/03/22 04:57:21;;;;;;;5.67;2.60;;;;;6.10;93747.00;;;;7400440;19;20141;-74
2023/03/22 04:59:49;;;;;;;4.37;2.90;;;;;6.00;93742.00;;;;7399459;19;20113;-73
2023/03/22 05:02:26;;;;;;;3.57;2.47;;;;;5.90;93747.00;;;;7397403;19;20627;-74
2023/03/22 05:05:00;;;;;;;3.67;2.70;;;;;5.80;93745.00;;;;7400688;19;20116;-76
2023/03/22 05:07:28;;;;;;;5.13;2.87;;;;;5.60;93750.00;;;;7399217;19;20133;-75
2023/03/22 05:10:02;;;;;;;3.97;2.50;;;;;5.80;93739.00;;;;7400100;19;20495;-74
2023/03/22 05:12:30;;;;;;;5.13;2.43;;;;;5.70;93741.00;;;;7399035;19;20145;-76
2023/03/22 05:15:12;;;;;;;3.00;2.67;;;;;5.70;93748.00;;;;7400582;19;20128;-75
2023/03/22 05:17:46;;;;;;;4.20;2.20;;;;;5.80;93737.00;;;;7400002;19;20159;-74
2023/03/22 05:20:20;;;;;;;3.87;2.80;;;;;5.70;93730.00;;;;7398050;19;20144;-74
2023/03/22 05:22:49;;;;;;;6.67;2.67;;;;;5.80;93726.00;;;;7397654;19;20157;-75
2023/03/22 05:25:24;;;;;;;4.13;2.30;;;;;5.90;93730.00;;;;7397598;19;20137;-75
2023/03/22 05:28:01;;;;;;;4.07;2.20;;;;;5.60;93659.00;;;;7398741;19;20468;-75
2023/03/22 05:30:36;;;;;;;5.73;2.37;;;;;5.60;93742.00;;;;7395663;19;20595;-75
2023/03/22 05:33:10;;;;;;;5.90;2.47;;;;;5.70;93734.00;;;;7394986;19;20591;-75
2023/03/22 05:35:41;;;;;;;4.77;2.73;;;;;5.60;93744.00;;;;7398666;19;20130;-73
2023/03/22 05:38:16;;;;;;;3.33;2.20;;;;;5.60;93743.00;;;;7396241;19;20654;-74
2023/03/22 05:40:48;;;;;;;4.27;2.20;;;;;5.60;93741.00;;;;7399764;19;20155;-75
2023/03/22 05:43:22;;;;;;;8.73;3.80;;;;;5.70;93745.00;;;;7397963;19;20152;-75
2023/03/22 05:45:54;;;;;;;7.73;2.33;;;;;5.70;93752.00;;;;7399199;19;20129;-73
2023/03/22 05:48:30;;;;;;;3.83;2.33;;;;;5.70;93749.00;;;;7399181;19;20607;-74
2023/03/22 05:50:59;;;;;;;4.00;2.40;;;;;5.90;93745.00;;;;7399172;19;20180;-74
2023/03/22 05:53:35;;;;;;;6.87;2.43;;;;;5.90;93749.00;;;;7399226;19;20160;-75
2023/03/22 05:56:09;;;;;;;3.23;2.40;;;;;6.10;93750.00;;;;7399009;19;20120;-74
2023/03/22 05:58:43;;;;;;;11.50;2.40;;;;;6.10;93753.00;;;;7395671;19;20156;-73
2023/03/22 06:01:20;;;;;;;5.17;2.37;;;;;6.20;93755.00;;;;7397956;19;20121;-75
2023/03/22 06:03:54;;;;;;;3.57;2.07;;;;;6.30;93755.00;;;;7394616;19;20176;-77
2023/03/22 06:06:22;;;;;;;4.20;2.40;;;;;6.30;93763.00;;;;7397918;19;20234;-75
2023/03/22 06:08:51;;;;;;;3.40;2.20;;;;;6.40;93750.00;;;;7398379;19;20239;-74
2023/03/22 06:11:41;;;;;;;3.67;2.33;;;;;6.60;93750.00;;;;7397654;19;20155;-74
2023/03/22 06:14:16;;;;;;;6.13;2.57;;;;;6.70;93754.00;;;;7385876;19;20504;-74
2023/03/22 06:16:50;;;;;;;3.13;2.30;;;;;6.80;93752.00;;;;7395063;19;20195;-74
2023/03/22 06:19:25;;;;;;;7.00;2.37;;;;;6.80;93755.00;;;;7398392;19;20137;-74
2023/03/22 06:21:59;;;;;;;5.00;2.07;;;;;6.90;93743.00;;;;7396879;19;20171;-76
2023/03/22 06:24:26;;;;;;;4.67;2.80;;;;;6.90;93755.00;;;;7396875;19;20484;-75
2023/03/22 06:27:00;;;;;;;4.43;1.90;;;;;7.10;93753.00;;;;7396340;19;20141;-73
2023/03/22 06:29:35;;;;;;;3.20;1.83;;;;;7.20;93750.00;;;;7398025;19;20121;-75
2023/03/22 06:32:10;;;;;;;4.83;2.20;;;;;7.40;93759.00;;;;7391904;19;20207;-76
2023/03/22 06:34:44;;;;;;;5.03;2.13;;;;;7.50;93756.00;;;;7396858;19;20144;-73
2023/03/22 06:37:18;;;;;;;4.93;1.83;;;;;7.60;93761.00;;;;7395641;19;20159;-73
2023/03/22 06:40:01;;;;;;;3.67;1.97;;;;;7.70;93765.00;;;;7399831;19;20127;-75
2023/03/22 06:42:39;;;;;;;7.63;2.27;;;;;7.80;93759.00;;;;7396127;19;20166;-72
2023/03/22 06:45:07;;;;;;;4.87;2.20;;;;;8.00;93763.00;;;;7395166;19;20734;-75
2023/03/22 06:47:43;;;;;;;2.37;2.00;;;;;8.10;93763.00;;;;7397385;19;20155;-75
2023/03/22 06:50:11;;;;;;;2.83;1.80;;;;;8.40;93761.00;;;;7404357;19;20125;-74
2023/03/22 06:52:45;;;;;;;2.77;1.70;;;;;8.50;93753.00;;;;7403776;19;20630;-75
2023/03/22 06:55:21;;;;;;;3.57;1.90;;;;;8.70;93760.00;;;;7404335;19;20143;-73
2023/03/22 06:57:54;;;;;;;3.03;2.00;;;;;8.80;93752.00;;;;7404741;19;20125;-74
2023/03/22 07:00:22;;;;;;;2.63;1.67;;;;;9.00;93756.00;;;;7402792;19;20475;-74
2023/03/22 07:02:58;;;;;;;3.37;1.90;;;;;9.30;93747.00;;;;7402061;19;20749;-75
2023/03/22 07:05:27;;;;;;;5.33;1.87;;;;;9.60;93755.00;;;;7403378;19;20117;-74
2023/03/22 07:08:02;;;;;;;3.30;1.80;;;;;9.80;93744.00;;;;7404230;19;20440;-73
2023/03/22 07:10:30;;;;;;;2.40;2.00;;;;;10.10;93746.00;;;;7402900;19;20133;-75
2023/03/22 07:12:57;;;;;;;2.40;1.60;;;;;10.10;93737.00;;;;7401876;19;20600;-74
2023/03/22 07:15:33;;;;;;;2.58;1.70;;;;;10.20;93744.00;;;;7402821;19;20459;-74
2023/03/22 07:18:01;;;;;;;3.20;1.73;;;;;10.50;93741.00;;;;7402008;19;20178;-73
2023/03/22 07:20:37;;;;;;;3.08;1.65;;;;;10.70;93749.00;;;;7402266;19;20148;-75
2023/03/22 07:23:05;;;;;;;3.40;1.38;;;;;10.90;93752.00;;;;7402071;19;20136;-75
2023/03/22 07:25:39;;;;;;;3.47;1.63;;;;;11.10;93750.00;;;;7403125;19;20160;-74
2023/03/22 07:28:09;;;;;;;2.15;1.52;;;;;11.40;93760.00;;;;7401926;19;20169;-72
2023/03/22 07:30:44;;;;;;;2.97;1.60;;;;;11.90;93752.00;;;;7403363;19;20160;-74
2023/03/22 07:33:18;;;;;;;5.13;1.48;;;;;12.20;93755.00;;;;7402348;19;20196;-72
2023/03/22 07:36:01;;;;;;;3.15;1.60;;;;;12.70;93762.00;;;;7398579;19;20529;-75
2023/03/22 07:38:44;;;;;;;1.83;1.10;;;;;12.80;93753.00;;;;7402670;19;20141;-73
2023/03/22 07:41:13;;;;;;;2.40;1.50;;;;;12.80;93706.00;;;;7402654;19;20145;-73
2023/03/22 07:43:46;;;;;;;3.47;1.20;;;;;12.50;93754.00;;;;7400880;19;20592;-73
2023/03/22 07:46:26;;;;;;;3.00;1.27;;;;;12.10;93755.00;;;;7401537;19;20146;-74
2023/03/22 07:49:01;;;;;;;2.55;1.27;;;;;12.60;93761.00;;;;7401511;19;20132;-75
2023/03/22 07:51:35;;;;;;;2.70;0.98;;;;;12.60;93754.00;;;;7401713;19;20263;-74
2023/03/22 07:54:03;;;;;;;1.50;0.88;;;;;12.50;93755.00;;;;7402820;19;20136;-74
2023/03/22 07:56:46;;;;;;;1.40;0.88;;;;;12.60;93757.00;;;;7400349;19;20121;-75
2023/03/22 07:59:15;;;;;;;0.60;0.60;;;;;12.40;93756.00;;;;7400201;19;20152;-75
2023/03/22 08:01:50;;;;;;;2.08;0.80;;;;;12.20;93758.00;;;;7400699;19;20149;-72
2023/03/22 08:04:25;;;;;;;2.08;0.80;;;;;12.20;93762.00;;;;7400499;19;20120;-75
2023/03/22 08:06:57;;;;;;;1.30;0.63;;;;;12.20;93755.00;;;;7401426;19;20152;-75
2023/03/22 08:09:32;;;;;;;1.27;0.50;;;;;12.30;93755.00;;;;7400877;19;20164;-75
2023/03/22 08:11:59;;;;;;;2.35;0.70;;;;;12.70;93760.00;;;;7401093;19;20195;-75
2023/03/22 08:14:40;;;;;;;1.55;0.80;;;;;12.80;93760.00;;;;7401270;19;20144;-73
2023/03/22 08:17:15;;;;;;;2.60;0.60;;;;;13.00;93769.00;;;;7401603;19;20142;-74
2023/03/22 08:19:49;;;;;;;1.35;0.80;;;;;12.90;93762.00;;;;7399815;19;20145;-75
2023/03/22 08:22:24;;;;;;;1.13;0.80;;;;;13.50;93754.00;;;;7398589;19;20212;-74
2023/03/22 08:24:59;;;;;;;1.13;0.60;;;;;13.90;93756.00;;;;7401456;19;20146;-74
2023/03/22 08:27:26;;;;;;;0.80;0.70;;;;;13.80;93758.00;;;;7398126;19;20489;-73
2023/03/22 08:30:01;;;;;;;0.98;0.70;;;;;13.90;93751.00;;;;7399344;19;20462;-74
2023/03/22 08:32:29;;;;;;;2.20;0.70;;;;;14.40;93756.00;;;;7400710;19;20141;-74
2023/03/22 08:35:05;;;;;;;1.73;0.60;;;;;14.90;93750.00;;;;7398896;19;20147;-72
2023/03/22 08:37:33;;;;;;;1.85;0.60;;;;;15.70;93759.00;;;;7399547;19;20149;-74
2023/03/22 08:40:08;;;;;;;1.52;0.70;;;;;16.50;93750.00;;;;7400824;19;20137;-72
2023/03/22 08:42:36;;;;;;;0.35;0.35;;;;;15.40;93767.00;;;;7399557;19;20170;-73
2023/03/22 08:45:11;;;;;;;0.50;0.50;;;;;15.70;93762.00;;;;7400457;19;20132;-73
2023/03/22 08:47:40;;;;;;;0.57;0.57;;;;;15.30;93758.00;;;;7399818;19;20608;-74
2023/03/22 08:50:15;;;;;;;0.73;0.50;;;;;16.00;93752.00;;;;7400270;19;20133;-74
2023/03/22 08:52:49;;;;;;;1.10;0.60;;;;;15.90;93747.00;;;;7401056;19;20567;-73
2023/03/22 08:55:23;;;;;;;1.10;0.80;;;;;15.20;93744.00;;;;7399359;19;20141;-74
2023/03/22 08:57:58;;;;;;;1.35;0.60;;;;;15.10;93745.00;;;;7400276;19;20144;-72
2023/03/22 09:00:33;;;;;;;0.70;0.60;;;;;16.20;93741.00;;;;7399077;19;20133;-73
2023/03/22 09:03:15;;;;;;;1.45;0.80;;;;;16.50;93736.00;;;;7397413;19;20172;-74
2023/03/22 09:05:50;;;;;;;0.60;0.60;;;;;17.00;93727.00;;;;7400635;19;20128;-73
2023/03/22 09:08:18;;;;;;;0.57;0.50;;;;;18.30;93732.00;;;;7400100;19;20129;-72
2023/03/22 09:10:51;;;;;;;1.13;0.70;;;;;17.70;93731.00;;;;7396941;19;20172;-72
2023/03/22 09:13:19;;;;;;;0.95;0.65;;;;;17.80;93734.00;;;;7397138;19;20152;-74
2023/03/22 09:15:54;;;;;;;0.50;0.50;;;;;18.50;93730.00;;;;7398363;19;20124;-73
2023/03/22 09:18:23;;;;;;;1.00;0.60;;;;;17.60;93741.00;;;;7398782;19;20138;-74
2023/03/22 09:20:57;;;;;;;0.85;0.70;;;;;18.50;93732.00;;;;7399271;19;20144;-71
2023/03/22 09:23:34;;;;;;;1.35;0.75;;;;;18.90;93737.00;;;;7398189;19;20152;-74
2023/03/22 09:26:04;;;;;;;1.17;0.60;;;;;18.40;93747.00;;;;7399009;19;20159;-73
2023/03/22 09:28:39;;;;;;;2.03;0.60;;;;;17.80;93748.00;;;;7398401;19;20168;-73
2023/03/22 09:31:08;;;;;;;0.63;0.63;;;;;17.50;93745.00;;;;7400867;19;20152;-72
2023/03/22 09:33:48;;;;;;;0.57;0.52;;;;;18.20;93729.00;;;;7395804;19;20580;-73
2023/03/22 09:36:24;;;;;;;0.70;0.70;;;;;17.90;93734.00;;;;7397887;19;20148;-72
2023/03/22 09:38:59;;;;;;;1.20;0.52;;;;;18.80;93728.00;;;;7400655;19;20133;-74
2023/03/22 09:41:50;;;;;;;0.70;0.50;;;;;18.70;93724.00;;;;7398362;19;20148;-74
2023/03/22 09:44:31;;;;;;;0.45;0.40;;;;;19.00;93722.00;;;;7396552;19;20520;-74
2023/03/22 09:47:17;;;;;;;1.42;0.77;;;;;18.60;93735.00;;;;7399815;19;20139;-74
2023/03/22 09:50:15;;;;;;;1.98;1.08;;;;;18.20;93736.00;;;;7398099;19;20148;-75
2023/03/22 09:52:43;;;;;;;0.60;0.60;;;;;17.60;93730.00;;;;7397824;19;20156;-73
2023/03/22 09:55:44;;;;;;;0.47;0.47;;;;;18.40;93724.00;;;;7398150;19;20186;-74
2023/03/22 09:58:37;;;;;;;2.22;0.70;;;;;18.30;93730.00;;;;7399330;19;20825;-74
2023/03/22 10:01:36;;;;;;;0.50;0.50;;;;;18.30;93715.00;;;;7396712;19;20117;-73
2023/03/22 10:04:10;;;;;;;0.77;0.70;;;;;18.00;93712.00;;;;7397002;19;20596;-80
2023/03/22 10:06:49;;;;;;;0.65;0.60;;;;;18.10;93722.00;;;;7399360;19;20137;-73
2023/03/22 10:09:33;;;;;;;1.27;0.85;;;;;18.00;93715.00;;;;7397945;19;20121;-75
2023/03/22 10:12:35;;;;;;;1.05;0.75;;;;;17.80;93712.00;;;;7397603;19;20144;-75
2023/03/22 10:15:29;;;;;;;2.15;1.10;;;;;17.60;93720.00;;;;7399359;19;20121;-74
2023/03/22 10:18:00;;;;;;;1.20;0.77;;;;;17.10;93718.00;;;;7398836;19;20483;-73
2023/03/22 10:20:45;;;;;;;0.70;0.70;;;;;17.40;93711.00;;;;7396720;19;20132;-73
2023/03/22 10:23:24;;;;;;;1.17;0.80;;;;;18.50;93699.00;;;;7398440;19;20140;-73
2023/03/22 10:26:01;;;;;;;1.52;0.80;;;;;18.30;93710.00;;;;7406011;19;20117;-73
2023/03/22 10:28:54;;;;;;;1.10;0.70;;;;;18.20;93714.00;;;;7404639;19;20133;-73
2023/03/22 10:31:32;;;;;;;0.95;0.70;;;;;18.00;93722.00;;;;7400339;19;20168;-73
2023/03/22 10:34:21;;;;;;;1.00;0.70;;;;;17.20;93710.00;;;;7404362;19;20592;-74
2023/03/22 10:37:00;;;;;;;2.72;0.82;;;;;16.70;93706.00;;;;7403768;19;20608;-73
2023/03/22 10:39:40;;;;;;;1.15;0.80;;;;;17.60;93714.00;;;;7403998;19;20161;-72
2023/03/22 10:42:23;;;;;;;1.25;0.80;;;;;18.30;93697.00;;;;7404303;19;20120;-73
2023/03/22 10:44:53;;;;;;;0.88;0.70;;;;;18.00;93702.00;;;;7401649;19;20223;-74
2023/03/22 10:47:59;;;;;;;0.63;0.63;;;;;18.30;93694.00;;;;7404451;19;20169;-73
2023/03/22 10:50:38;;;;;;;2.53;0.70;;;;;18.80;93699.00;;;;7405298;19;20217;-73
2023/03/22 10:53:37;;;;;;;0.93;0.85;;;;;19.50;93701.00;;;;7403857;19;20117;-73
2023/03/22 10:56:14;;;;;;;0.88;0.77;;;;;19.20;93690.00;;;;7403945;19;20626;-73
2023/03/22 10:58:42;;;;;;;2.85;0.70;;;;;20.00;93686.00;;;;7405191;19;20149;-74
2023/03/22 11:01:35;;;;;;;0.90;0.85;;;;;18.90;93689.00;;;;7402835;19;20148;-74
2023/03/22 11:04:11;;;;;;;1.08;0.80;;;;;18.80;93703.00;;;;7403718;19;20476;-72
2023/03/22 11:06:51;;;;;;;0.60;0.60;;;;;18.10;93705.00;;;;7403130;19;20121;-73
2023/03/22 11:09:23;;;;;;;1.48;0.70;;;;;18.10;93705.00;;;;7402627;19;20666;-74
2023/03/22 11:12:05;;;;;;;1.70;0.75;;;;;17.10;93712.00;;;;7404413;19;20128;-74
2023/03/22 11:14:44;;;;;;;0.80;0.80;;;;;16.50;93716.00;;;;7403179;19;20630;-77
2023/03/22 11:17:24;;;;;;;0.73;0.55;;;;;16.30;93725.00;;;;7402642;19;20139;-72
2023/03/22 11:20:08;;;;;;;0.95;0.80;;;;;16.10;93717.00;;;;7404076;19;20137;-73
2023/03/22 11:22:45;;;;;;;1.35;0.80;;;;;16.30;93721.00;;;;7403170;19;20137;-72
2023/03/22 11:25:25;;;;;;;0.57;0.50;;;;;16.50;93714.00;;;;7400583;19;20144;-74
2023/03/22 11:28:02;;;;;;;2.03;0.77;;;;;16.40;93711.00;;;;7403137;19;20559;-74
2023/03/22 11:30:37;;;;;;;1.33;0.90;;;;;17.10;93710.00;;;;7402992;19;20238;-74
2023/03/22 11:33:20;;;;;;;1.50;0.80;;;;;17.10;93715.00;;;;7402897;19;20207;-75
2023/03/22 11:36:01;;;;;;;2.25;0.90;;;;;16.90;93699.00;;;;7398721;19;20121;-73
2023/03/22 11:38:42;;;;;;;0.70;0.70;;;;;17.80;93688.00;;;;7402770;19;20148;-73
2023/03/22 11:41:28;;;;;;;3.75;1.33;;;;;17.10;93700.00;;;;7402454;19;20455;-75
2023/03/22 11:44:06;;;;;;;0.93;0.82;;;;;17.70;93710.00;;;;7402120;19;20124;-73
2023/03/22 11:46:50;;;;;;;1.17;0.80;;;;;17.00;93703.00;;;;7401385;19;20125;-75
2023/03/22 11:49:30;;;;;;;1.75;1.00;;;;;16.80;93709.00;;;;7403345;19;20599;-75
2023/03/22 11:52:08;;;;;;;1.27;0.70;;;;;16.10;93715.00;;;;7402403;19;20203;-74
2023/03/22 11:54:44;;;;;;;1.08;0.90;;;;;16.40;93701.00;;;;7401301;19;20152;-73
2023/03/22 11:57:32;;;;;;;0.77;0.77;;;;;16.40;93704.00;;;;7402122;19;20152;-75
2023/03/22 12:00:20;;;;;;;1.15;0.80;;;;;17.00;93688.00;;;;7404074;19;20200;-74
2023/03/22 12:03:08;;;;;;;1.02;0.93;;;;;16.70;93688.00;;;;7396553;19;20137;-74
2023/03/22 12:05:46;;;;;;;1.38;0.77;;;;;16.90;93683.00;;;;7394605;19;20129;-73
2023/03/22 12:08:41;;;;;;;0.98;0.85;;;;;18.00;93679.00;;;;7395541;19;20159;-75
2023/03/22 12:11:39;;;;;;;1.58;0.75;;;;;17.40;93677.00;;;;7396082;19;20139;-75
2023/03/22 12:14:29;;;;;;;1.30;0.90;;;;;18.10;93677.00;;;;7394983;19;20462;-73
2023/03/22 12:17:05;;;;;;;0.70;0.70;;;;;18.00;93670.00;;;;7393703;19;20902;-74
2023/03/22 12:20:17;;;;;;;2.00;0.73;;;;;18.10;93665.00;;;;7395642;19;20477;-75
2023/03/22 12:22:51;;;;;;;2.20;1.00;;;;;18.30;93666.00;;;;7395448;19;20148;-74
2023/03/22 12:25:30;;;;;;;0.80;0.80;;;;;18.00;93651.00;;;;7391238;19;20603;-73
2023/03/22 12:28:08;;;;;;;0.70;0.70;;;;;18.60;93652.00;;;;7387319;19;20957;-75
2023/03/22 12:30:55;;;;;;;0.98;0.93;;;;;18.10;93654.00;;;;7394235;19;20149;-75
2023/03/22 12:33:39;;;;;;;1.95;0.90;;;;;18.20;93640.00;;;;7393986;19;20145;-73
2023/03/22 12:36:23;;;;;;;0.80;0.80;;;;;18.20;93639.00;;;;7395389;19;20189;-74
2023/03/22 12:38:57;;;;;;;1.15;0.80;;;;;19.60;93629.00;;;;7395453;19;20121;-74
2023/03/22 12:41:36;;;;;;;1.45;0.77;;;;;20.10;93620.00;;;;7396144;19;20184;-75
2023/03/22 12:44:28;;;;;;;1.00;0.90;;;;;20.00;93643.00;;;;7399590;19;20159;-75
2023/03/22 12:47:23;;;;;;;0.60;0.60;;;;;19.50;93644.00;;;;7399474;19;20131;-75
2023/03/22 12:50:11;;;;;;;0.93;0.93;;;;;19.20;93640.00;;;;7400998;19;20479;-73
2023/03/22 12:52:55;;;;;;;1.52;1.10;;;;;18.80;93642.00;;;;7400119;19;20133;-74
2023/03/22 12:55:33;;;;;;;1.20;0.88;;;;;19.00;93645.00;;;;7400330;19;20132;-73
2023/03/22 12:58:17;;;;;;;1.20;0.90;;;;;19.80;93637.00;;;;7400476;19;20608;-73
2023/03/22 13:01:17;;;;;;;0.65;0.60;;;;;18.60;93633.00;;;;7400660;19;20139;-74
2023/03/22 13:03:53;;;;;;;0.90;0.90;;;;;18.90;93623.00;;;;7398581;19;20160;-73
2023/03/22 13:06:35;;;;;;;0.90;0.90;;;;;20.10;93627.00;;;;7399475;19;20162;-74
2023/03/22 13:09:17;;;;;;;0.80;0.80;;;;;20.40;93612.00;;;;7398969;19;20152;-75
2023/03/22 13:12:07;;;;;;;0.80;0.80;;;;;20.30;93626.00;;;;7400338;19;20457;-75
2023/03/22 13:14:51;;;;;;;2.25;1.00;;;;;20.30;93618.00;;;;7395042;19;20143;-74
2023/03/22 13:17:25;;;;;;;2.35;1.05;;;;;19.70;93617.00;;;;7400654;19;20526;-75